createdAt,value
2022-12-20T00:00:47.630Z,9.43
2022-12-20T00:01:47.892Z,9.43
2022-12-20T00:02:47.987Z,9.44
2022-12-20T00:03:48.146Z,9.44
2022-12-20T00:04:48.330Z,9.47
2022-12-20T00:05:48.515Z,9.48
2022-12-20T00:06:48.677Z,9.48
2022-12-20T00:07:48.836Z,9.50
2022-12-20T00:08:49.005Z,9.46
2022-12-20T00:09:49.187Z,9.48
2022-12-20T00:10:49.364Z,9.47
2022-12-20T00:11:49.544Z,9.50
2022-12-20T00:12:49.721Z,9.54
2022-12-20T00:13:49.884Z,9.55
2022-12-20T00:14:50.065Z,9.54
2022-12-20T00:15:50.252Z,9.54
2022-12-20T00:16:50.428Z,9.56
2022-12-20T00:17:50.687Z,9.56
2022-12-20T00:18:50.801Z,9.55
2022-12-20T00:19:50.923Z,9.56
2022-12-20T00:20:51.110Z,9.58
2022-12-20T00:21:51.274Z,9.56
2022-12-20T00:22:51.455Z,9.55
2022-12-20T00:23:51.637Z,9.55
2022-12-20T00:24:51.804Z,9.56
2022-12-20T00:25:51.986Z,9.55
2022-12-20T00:26:52.167Z,9.56
2022-12-20T00:27:52.341Z,9.56
2022-12-20T00:28:52.513Z,9.58
2022-12-20T00:29:52.694Z,9.56
2022-12-20T00:30:52.875Z,9.58
2022-12-20T00:31:53.091Z,9.61
2022-12-20T00:32:53.234Z,9.62
2022-12-20T00:33:53.404Z,9.62
2022-12-20T00:34:53.582Z,9.61
2022-12-20T00:35:53.761Z,9.61
2022-12-20T00:36:53.934Z,9.58
2022-12-20T00:37:54.110Z,9.61
2022-12-20T00:38:54.283Z,9.64
2022-12-20T00:39:54.458Z,9.65
2022-12-20T00:40:54.645Z,9.65
2022-12-20T00:41:54.795Z,9.62
2022-12-20T00:42:54.956Z,9.64
2022-12-20T00:43:55.142Z,9.66
2022-12-20T00:44:55.313Z,9.66
2022-12-20T00:45:55.501Z,9.66
2022-12-20T00:46:55.724Z,9.72
2022-12-20T00:47:55.825Z,9.69
2022-12-20T00:48:56.008Z,9.72
2022-12-20T00:49:56.174Z,9.72
2022-12-20T00:50:56.383Z,9.68
2022-12-20T00:51:56.510Z,9.68
2022-12-20T00:52:56.674Z,9.68
2022-12-20T00:53:56.861Z,9.68
2022-12-20T00:54:57.009Z,9.68
2022-12-20T00:55:57.184Z,9.65
2022-12-20T00:56:57.355Z,9.61
2022-12-20T00:57:57.534Z,9.59
2022-12-20T00:58:57.691Z,9.61
2022-12-20T00:59:57.874Z,9.58
2022-12-20T01:00:58.181Z,9.59
2022-12-20T01:01:58.340Z,9.56
2022-12-20T01:02:58.528Z,9.56
2022-12-20T01:03:58.563Z,9.55
2022-12-20T01:04:58.738Z,9.51
2022-12-20T01:05:58.911Z,9.48
2022-12-20T01:06:59.098Z,9.43
2022-12-20T01:07:59.271Z,9.43
2022-12-20T01:08:59.447Z,9.46
2022-12-20T01:09:59.619Z,9.46
2022-12-20T01:10:59.827Z,9.46
2022-12-20T01:11:59.944Z,9.44
2022-12-20T01:13:00.136Z,9.43
2022-12-20T01:14:00.304Z,9.44
2022-12-20T01:15:00.472Z,9.47
2022-12-20T01:16:00.751Z,9.48
2022-12-20T01:17:00.904Z,9.47
2022-12-20T01:18:00.988Z,9.48
2022-12-20T01:19:01.174Z,9.47
2022-12-20T01:20:01.344Z,9.50
2022-12-20T01:21:01.528Z,9.47
2022-12-20T01:22:01.679Z,9.47
2022-12-20T01:23:01.868Z,9.50
2022-12-20T01:24:02.038Z,9.51
2022-12-20T01:25:02.210Z,9.50
2022-12-20T01:26:02.425Z,9.50
2022-12-20T01:27:02.564Z,9.50
2022-12-20T01:28:02.751Z,9.48
2022-12-20T01:29:02.909Z,9.44
2022-12-20T01:30:03.107Z,9.47
2022-12-20T01:31:03.270Z,9.46
2022-12-20T01:32:03.478Z,9.44
2022-12-20T01:33:03.645Z,9.44
2022-12-20T01:34:03.789Z,9.39
2022-12-20T01:35:03.978Z,9.39
2022-12-20T01:36:04.171Z,9.37
2022-12-20T01:37:04.339Z,9.36
2022-12-20T01:38:04.487Z,9.32
2022-12-20T01:39:04.673Z,9.29
2022-12-20T01:40:04.875Z,9.29
2022-12-20T01:41:05.050Z,9.26
2022-12-20T01:42:05.184Z,9.26
2022-12-20T01:43:05.347Z,9.23
2022-12-20T01:44:05.516Z,9.22
2022-12-20T01:45:05.698Z,9.19
2022-12-20T01:46:05.938Z,9.16
2022-12-20T01:47:06.034Z,9.16
2022-12-20T01:48:06.219Z,9.14
2022-12-20T01:49:06.400Z,9.13
2022-12-20T01:50:06.553Z,9.11
2022-12-20T01:51:06.731Z,9.08
2022-12-20T01:52:06.903Z,9.11
2022-12-20T01:53:07.068Z,9.08
2022-12-20T01:54:07.247Z,9.06
2022-12-20T01:55:07.403Z,9.08
2022-12-20T01:56:07.591Z,9.08
2022-12-20T01:57:07.750Z,9.06
2022-12-20T01:58:07.920Z,9.04
2022-12-20T01:59:08.109Z,9.06
2022-12-20T02:00:08.266Z,9.03
2022-12-20T02:01:08.565Z,9.04
2022-12-20T02:02:08.844Z,9.00
2022-12-20T02:03:08.875Z,9.03
2022-12-20T02:04:08.974Z,9.04
2022-12-20T02:05:09.186Z,9.03
2022-12-20T02:06:09.376Z,9.04
2022-12-20T02:07:09.551Z,9.03
2022-12-20T02:08:09.726Z,9.04
2022-12-20T02:09:09.889Z,9.03
2022-12-20T02:10:10.043Z,9.03
2022-12-20T02:11:10.236Z,9.06
2022-12-20T02:12:10.402Z,9.04
2022-12-20T02:13:10.593Z,9.06
2022-12-20T02:14:10.744Z,9.04
2022-12-20T02:15:10.915Z,9.06
2022-12-20T02:16:11.187Z,9.06
2022-12-20T02:17:11.348Z,9.08
2022-12-20T02:18:11.470Z,9.11
2022-12-20T02:19:11.632Z,9.14
2022-12-20T02:20:11.839Z,9.18
2022-12-20T02:21:11.975Z,9.22
2022-12-20T02:22:12.152Z,9.25
2022-12-20T02:23:12.314Z,9.29
2022-12-20T02:24:12.496Z,9.32
2022-12-20T02:25:12.676Z,9.34
2022-12-20T02:26:12.847Z,9.39
2022-12-20T02:27:12.981Z,9.41
2022-12-20T02:28:13.181Z,9.47
2022-12-20T02:29:13.335Z,9.50
2022-12-20T02:30:13.515Z,9.55
2022-12-20T02:31:13.685Z,9.56
2022-12-20T02:32:13.937Z,9.59
2022-12-20T02:33:14.076Z,9.59
2022-12-20T02:34:14.252Z,9.61
2022-12-20T02:35:14.412Z,9.61
2022-12-20T02:36:14.620Z,9.58
2022-12-20T02:37:14.813Z,9.58
2022-12-20T02:38:14.970Z,9.56
2022-12-20T02:39:15.144Z,9.59
2022-12-20T02:40:15.288Z,9.62
2022-12-20T02:41:15.468Z,9.64
2022-12-20T02:42:15.668Z,9.65
2022-12-20T02:43:15.822Z,9.66
2022-12-20T02:44:16.001Z,9.69
2022-12-20T02:45:16.223Z,9.73
2022-12-20T02:46:16.437Z,9.74
2022-12-20T02:47:16.528Z,9.76
2022-12-20T02:48:16.684Z,9.76
2022-12-20T02:49:16.850Z,9.82
2022-12-20T02:50:17.055Z,9.80
2022-12-20T02:51:17.233Z,9.80
2022-12-20T02:52:17.390Z,9.79
2022-12-20T02:53:17.561Z,9.77
2022-12-20T02:54:17.734Z,9.80
2022-12-20T02:55:17.917Z,9.77
2022-12-20T02:56:18.091Z,9.79
2022-12-20T02:57:18.273Z,9.80
2022-12-20T02:58:18.460Z,9.83
2022-12-20T02:59:18.611Z,9.84
2022-12-20T03:00:18.788Z,9.83
2022-12-20T03:01:19.117Z,9.84
2022-12-20T03:02:19.327Z,9.86
2022-12-20T03:03:19.334Z,9.84
2022-12-20T03:04:19.471Z,9.84
2022-12-20T03:05:19.656Z,9.86
2022-12-20T03:06:19.845Z,9.86
2022-12-20T03:07:19.987Z,9.86
2022-12-20T03:08:20.188Z,9.87
2022-12-20T03:09:20.329Z,9.87
2022-12-20T03:10:20.492Z,9.92
2022-12-20T03:11:25.136Z,9.95
2022-12-20T03:12:20.848Z,9.94
2022-12-20T03:13:21.030Z,9.95
2022-12-20T03:14:21.198Z,9.95
2022-12-20T03:15:21.334Z,9.95
2022-12-20T03:16:21.596Z,9.97
2022-12-20T03:17:21.666Z,10.01
2022-12-20T03:18:21.857Z,10.04
2022-12-20T03:19:22.018Z,10.04
2022-12-20T03:20:22.175Z,10.07
2022-12-20T03:21:22.358Z,10.09
2022-12-20T03:22:22.526Z,10.09
2022-12-20T03:23:22.687Z,10.09
2022-12-20T03:24:22.880Z,10.12
2022-12-20T03:25:23.027Z,10.12
2022-12-20T03:26:23.222Z,10.12
2022-12-20T03:27:23.354Z,10.13
2022-12-20T03:28:23.519Z,10.13
2022-12-20T03:29:23.690Z,10.13
2022-12-20T03:30:23.887Z,10.10
2022-12-20T03:31:24.077Z,10.09
2022-12-20T03:32:24.210Z,10.13
2022-12-20T03:33:24.384Z,10.10
2022-12-20T03:34:24.545Z,10.10
2022-12-20T03:35:24.747Z,10.13
2022-12-20T03:36:24.896Z,10.15
2022-12-20T03:37:25.046Z,10.17
2022-12-20T03:38:25.227Z,10.19
2022-12-20T03:39:25.398Z,10.19
2022-12-20T03:40:25.608Z,10.20
2022-12-20T03:41:25.815Z,10.22
2022-12-20T03:42:25.917Z,10.22
2022-12-20T03:43:26.084Z,10.22
2022-12-20T03:44:26.291Z,10.20
2022-12-20T03:45:26.423Z,10.22
2022-12-20T03:46:26.644Z,10.22
2022-12-20T03:47:26.785Z,10.22
2022-12-20T03:48:26.984Z,10.19
2022-12-20T03:49:27.141Z,10.16
2022-12-20T03:50:27.313Z,10.15
2022-12-20T03:51:27.514Z,10.13
2022-12-20T03:52:27.656Z,10.09
2022-12-20T03:53:27.826Z,10.09
2022-12-20T03:54:28.011Z,10.07
2022-12-20T03:55:28.163Z,10.05
2022-12-20T03:56:28.348Z,10.05
2022-12-20T03:57:28.477Z,10.04
2022-12-20T03:58:28.649Z,10.01
2022-12-20T03:59:28.815Z,10.01
2022-12-20T04:00:29.006Z,10.02
2022-12-20T04:01:29.342Z,10.02
2022-12-20T04:02:29.577Z,10.02
2022-12-20T04:03:29.529Z,10.04
2022-12-20T04:04:29.649Z,10.04
2022-12-20T04:05:29.826Z,10.04
2022-12-20T04:06:30.016Z,10.05
2022-12-20T04:07:30.183Z,10.05
2022-12-20T04:08:30.391Z,10.07
2022-12-20T04:09:30.518Z,10.07
2022-12-20T04:10:30.742Z,10.07
2022-12-20T04:11:30.880Z,10.05
2022-12-20T04:12:31.044Z,10.05
2022-12-20T04:13:31.208Z,10.04
2022-12-20T04:14:31.363Z,10.04
2022-12-20T04:15:31.597Z,10.05
2022-12-20T04:16:31.773Z,10.02
2022-12-20T04:17:31.883Z,10.01
2022-12-20T04:18:32.065Z,10.02
2022-12-20T04:19:32.228Z,9.99
2022-12-20T04:20:32.423Z,9.98
2022-12-20T04:21:32.617Z,9.97
2022-12-20T04:22:32.783Z,9.94
2022-12-20T04:23:32.943Z,9.89
2022-12-20T04:24:33.131Z,9.89
2022-12-20T04:25:33.294Z,9.86
2022-12-20T04:26:33.481Z,9.86
2022-12-20T04:27:33.655Z,9.84
2022-12-20T04:28:33.844Z,9.82
2022-12-20T04:29:34.004Z,9.84
2022-12-20T04:30:34.192Z,9.83
2022-12-20T04:31:34.418Z,9.82
2022-12-20T04:32:34.508Z,9.82
2022-12-20T04:33:34.669Z,9.79
2022-12-20T04:34:34.834Z,9.80
2022-12-20T04:35:35.007Z,9.77
2022-12-20T04:36:35.195Z,9.76
2022-12-20T04:37:35.380Z,9.69
2022-12-20T04:38:35.554Z,9.65
2022-12-20T04:39:35.743Z,9.65
2022-12-20T04:40:35.903Z,9.62
2022-12-20T04:41:36.070Z,9.62
2022-12-20T04:42:36.273Z,9.59
2022-12-20T04:43:36.439Z,9.58
2022-12-20T04:44:36.599Z,9.56
2022-12-20T04:45:36.785Z,9.54
2022-12-20T04:46:37.028Z,9.54
2022-12-20T04:47:37.114Z,9.54
2022-12-20T04:48:55.663Z,9.48
2022-12-20T04:49:38.467Z,9.48
2022-12-20T04:50:37.706Z,9.46
2022-12-20T04:51:37.845Z,9.46
2022-12-20T04:52:42.146Z,9.44
2022-12-20T04:53:39.192Z,9.46
2022-12-20T04:54:38.360Z,9.47
2022-12-20T04:55:38.534Z,9.48
2022-12-20T04:56:38.712Z,9.54
2022-12-20T04:57:38.892Z,9.55
2022-12-20T04:58:39.057Z,9.59
2022-12-20T04:59:39.210Z,9.58
2022-12-20T05:00:39.391Z,9.61
2022-12-20T05:01:39.694Z,9.61
2022-12-20T05:02:39.832Z,9.64
2022-12-20T05:03:39.919Z,9.65
2022-12-20T05:04:40.032Z,9.66
2022-12-20T05:05:40.207Z,9.72
2022-12-20T05:06:40.403Z,9.69
2022-12-20T05:07:40.556Z,9.73
2022-12-20T05:08:40.702Z,9.74
2022-12-20T05:09:40.871Z,9.76
2022-12-20T05:10:41.046Z,9.80
2022-12-20T05:11:41.254Z,9.82
2022-12-20T05:12:41.388Z,9.82
2022-12-20T05:13:41.540Z,9.83
2022-12-20T05:14:41.717Z,9.80
2022-12-20T05:15:41.945Z,9.80
2022-12-20T05:16:42.112Z,9.80
2022-12-20T05:17:42.234Z,9.82
2022-12-20T05:18:48.506Z,9.82
2022-12-20T05:19:43.580Z,9.79
2022-12-20T05:20:42.766Z,9.83
2022-12-20T05:21:42.941Z,9.83
2022-12-20T05:22:43.102Z,9.84
2022-12-20T05:23:43.285Z,9.89
2022-12-20T05:24:43.440Z,9.89
2022-12-20T05:25:43.611Z,9.89
2022-12-20T05:26:43.800Z,9.92
2022-12-20T05:27:43.967Z,9.95
2022-12-20T05:28:44.156Z,9.94
2022-12-20T05:29:44.329Z,9.95
2022-12-20T05:30:44.491Z,9.97
2022-12-20T05:31:44.775Z,9.99
2022-12-20T05:32:44.839Z,9.99
2022-12-20T05:33:45.012Z,10.01
2022-12-20T05:34:45.199Z,10.02
2022-12-20T05:35:45.368Z,10.02
2022-12-20T05:36:45.551Z,10.05
2022-12-20T05:37:45.715Z,10.07
2022-12-20T05:38:45.905Z,10.10
2022-12-20T05:39:46.073Z,10.12
2022-12-20T05:40:46.262Z,10.13
2022-12-20T05:41:46.394Z,10.16
2022-12-20T05:42:46.570Z,10.16
2022-12-20T05:43:46.749Z,10.17
2022-12-20T05:44:46.909Z,10.17
2022-12-20T05:45:47.108Z,10.20
2022-12-20T05:46:47.362Z,10.19
2022-12-20T05:47:47.401Z,10.22
2022-12-20T05:48:47.583Z,10.20
2022-12-20T05:49:47.754Z,10.22
2022-12-20T05:50:47.942Z,10.20
2022-12-20T05:51:48.078Z,10.20
2022-12-20T05:52:48.261Z,10.22
2022-12-20T05:53:48.413Z,10.20
2022-12-20T05:54:48.599Z,10.23
2022-12-20T05:55:48.745Z,10.25
2022-12-20T05:56:48.976Z,10.25
2022-12-20T05:57:49.105Z,10.25
2022-12-20T05:58:49.281Z,10.25
2022-12-20T05:59:49.453Z,10.26
2022-12-20T06:00:49.650Z,10.26
2022-12-20T06:01:49.887Z,10.33
2022-12-20T06:02:50.118Z,10.35
2022-12-20T06:03:50.246Z,10.40
2022-12-20T06:04:50.324Z,10.40
2022-12-20T06:05:50.481Z,10.40
2022-12-20T06:06:50.666Z,10.40
2022-12-20T06:07:50.813Z,10.38
2022-12-20T06:08:50.989Z,10.41
2022-12-20T06:09:51.170Z,10.41
2022-12-20T06:10:51.368Z,10.41
2022-12-20T06:11:51.500Z,10.41
2022-12-20T06:12:51.717Z,10.42
2022-12-20T06:13:51.827Z,10.44
2022-12-20T06:14:51.999Z,10.42
2022-12-20T06:15:52.256Z,10.46
2022-12-20T06:16:52.406Z,10.46
2022-12-20T06:17:52.561Z,10.48
2022-12-20T06:18:52.733Z,10.48
2022-12-20T06:19:52.916Z,10.46
2022-12-20T06:20:53.087Z,10.48
2022-12-20T06:21:53.290Z,10.51
2022-12-20T06:22:53.449Z,10.53
2022-12-20T06:23:53.642Z,10.54
2022-12-20T06:24:53.806Z,10.57
2022-12-20T06:25:54.051Z,10.57
2022-12-20T06:26:54.153Z,10.57
2022-12-20T06:27:54.322Z,10.57
2022-12-20T06:28:54.505Z,10.54
2022-12-20T06:29:54.746Z,10.54
2022-12-20T06:30:54.869Z,10.54
2022-12-20T06:31:55.053Z,10.54
2022-12-20T06:32:55.155Z,10.56
2022-12-20T06:33:55.343Z,10.53
2022-12-20T06:34:55.510Z,10.54
2022-12-20T06:35:55.665Z,10.54
2022-12-20T06:36:55.845Z,10.54
2022-12-20T06:37:56.030Z,10.53
2022-12-20T06:38:56.207Z,10.53
2022-12-20T06:39:56.384Z,10.53
2022-12-20T06:40:56.555Z,10.59
2022-12-20T06:41:56.724Z,10.59
2022-12-20T06:42:56.887Z,10.60
2022-12-20T06:43:57.056Z,10.59
2022-12-20T06:44:57.237Z,10.63
2022-12-20T06:45:57.448Z,10.64
2022-12-20T06:46:57.587Z,10.64
2022-12-20T06:47:57.766Z,10.64
2022-12-20T06:48:57.938Z,10.64
2022-12-20T06:49:58.124Z,10.64
2022-12-20T06:50:58.301Z,10.68
2022-12-20T06:51:58.494Z,10.69
2022-12-20T06:52:58.638Z,10.71
2022-12-20T06:53:58.818Z,10.68
2022-12-20T06:54:58.983Z,10.71
2022-12-20T06:55:59.152Z,10.69
2022-12-20T06:56:59.327Z,10.71
2022-12-20T06:57:59.474Z,10.71
2022-12-20T06:58:59.668Z,10.71
2022-12-20T06:59:59.854Z,10.72
2022-12-20T07:01:00.060Z,10.74
2022-12-20T07:02:00.441Z,10.74
2022-12-20T07:03:00.405Z,10.76
2022-12-20T07:04:00.535Z,10.76
2022-12-20T07:05:00.697Z,10.75
2022-12-20T07:06:00.868Z,10.78
2022-12-20T07:07:01.062Z,10.79
2022-12-20T07:08:01.182Z,10.81
2022-12-20T07:09:01.365Z,10.81
2022-12-20T07:10:01.557Z,10.79
2022-12-20T07:11:01.717Z,10.79
2022-12-20T07:12:01.913Z,10.79
2022-12-20T07:13:02.106Z,10.79
2022-12-20T07:14:02.264Z,10.81
2022-12-20T07:15:02.440Z,10.86
2022-12-20T07:16:02.603Z,10.86
2022-12-20T07:17:02.829Z,10.90
2022-12-20T07:18:02.964Z,10.92
2022-12-20T07:19:03.128Z,10.93
2022-12-20T07:20:09.109Z,10.90
2022-12-20T07:21:04.481Z,10.93
2022-12-20T07:22:03.648Z,10.92
2022-12-20T07:23:03.821Z,10.92
2022-12-20T07:24:04.004Z,10.93
2022-12-20T07:25:04.223Z,10.97
2022-12-20T07:26:04.359Z,10.99
2022-12-20T07:27:04.517Z,10.99
2022-12-20T07:28:04.693Z,11.00
2022-12-20T07:29:04.875Z,11.02
2022-12-20T07:30:05.056Z,11.05
2022-12-20T07:31:05.303Z,11.07
2022-12-20T07:32:05.416Z,11.05
2022-12-20T07:33:05.573Z,11.10
2022-12-20T07:34:05.749Z,11.11
2022-12-20T07:35:05.914Z,11.08
2022-12-20T07:36:06.084Z,11.11
2022-12-20T07:37:06.273Z,11.11
2022-12-20T07:38:06.436Z,11.11
2022-12-20T07:39:06.610Z,11.14
2022-12-20T07:40:06.777Z,11.14
2022-12-20T07:41:06.971Z,11.14
2022-12-20T07:42:07.165Z,11.12
2022-12-20T07:43:07.306Z,11.12
2022-12-20T07:44:07.482Z,11.11
2022-12-20T07:45:07.645Z,11.11
2022-12-20T07:46:07.859Z,11.12
2022-12-20T07:47:07.998Z,11.10
2022-12-20T07:48:13.769Z,11.12
2022-12-20T07:49:09.332Z,11.11
2022-12-20T07:50:08.512Z,11.12
2022-12-20T07:51:08.692Z,11.10
2022-12-20T07:52:08.890Z,11.12
2022-12-20T07:53:09.077Z,11.14
2022-12-20T07:54:09.213Z,11.15
2022-12-20T07:55:09.367Z,11.17
2022-12-20T07:56:09.542Z,11.17
2022-12-20T07:57:09.734Z,11.17
2022-12-20T07:58:09.919Z,11.17
2022-12-20T07:59:10.102Z,11.17
2022-12-20T08:00:10.258Z,11.18
2022-12-20T08:01:10.486Z,11.17
2022-12-20T08:02:10.770Z,11.17
2022-12-20T08:03:10.969Z,11.19
2022-12-20T08:04:11.081Z,11.18
2022-12-20T08:05:11.116Z,11.22
2022-12-20T08:06:11.299Z,11.19
2022-12-20T08:07:11.480Z,11.22
2022-12-20T08:08:11.664Z,11.23
2022-12-20T08:09:11.860Z,11.19
2022-12-20T08:10:11.977Z,11.19
2022-12-20T08:11:12.156Z,11.19
2022-12-20T08:12:12.343Z,11.18
2022-12-20T08:13:12.515Z,11.18
2022-12-20T08:14:12.707Z,11.17
2022-12-20T08:15:12.899Z,11.17
2022-12-20T08:16:13.138Z,11.12
2022-12-20T08:17:13.310Z,11.17
2022-12-20T08:18:13.477Z,11.15
2022-12-20T08:19:13.639Z,11.17
2022-12-20T08:20:13.855Z,11.14
2022-12-20T08:21:13.964Z,11.15
2022-12-20T08:22:14.152Z,11.17
2022-12-20T08:23:14.321Z,11.18
2022-12-20T08:24:14.489Z,11.19
2022-12-20T08:25:14.638Z,11.18
2022-12-20T08:26:14.854Z,11.23
2022-12-20T08:27:15.073Z,11.22
2022-12-20T08:28:15.198Z,11.23
2022-12-20T08:29:15.386Z,11.22
2022-12-20T08:30:15.563Z,11.19
2022-12-20T08:31:15.855Z,11.22
2022-12-20T08:32:15.923Z,11.23
2022-12-20T08:33:16.128Z,11.22
2022-12-20T08:34:16.284Z,11.18
2022-12-20T08:35:16.491Z,11.18
2022-12-20T08:36:16.655Z,11.14
2022-12-20T08:37:16.827Z,11.12
2022-12-20T08:38:16.997Z,11.14
2022-12-20T08:39:17.183Z,11.12
2022-12-20T08:40:17.362Z,11.11
2022-12-20T08:41:17.528Z,11.12
2022-12-20T08:42:17.712Z,11.15
2022-12-20T08:43:17.858Z,11.17
2022-12-20T08:44:18.019Z,11.15
2022-12-20T08:45:18.197Z,11.17
2022-12-20T08:46:18.465Z,11.19
2022-12-20T08:47:18.567Z,11.23
2022-12-20T08:48:18.734Z,11.23
2022-12-20T08:49:18.908Z,11.29
2022-12-20T08:50:19.098Z,11.33
2022-12-20T08:51:19.275Z,11.40
2022-12-20T08:52:19.427Z,11.44
2022-12-20T08:53:19.580Z,11.48
2022-12-20T08:54:19.755Z,11.52
2022-12-20T08:55:24.556Z,11.54
2022-12-20T08:56:21.104Z,11.59
2022-12-20T08:57:20.284Z,11.60
2022-12-20T08:58:20.442Z,11.60
2022-12-20T08:59:20.606Z,11.62
2022-12-20T09:00:20.777Z,11.63
2022-12-20T09:01:21.089Z,11.69
2022-12-20T09:02:21.320Z,11.72
2022-12-20T09:03:21.360Z,11.78
2022-12-20T09:04:21.456Z,11.86
2022-12-20T09:05:21.626Z,11.87
2022-12-20T09:06:21.785Z,11.97
2022-12-20T09:07:21.987Z,11.95
2022-12-20T09:08:22.126Z,11.97
2022-12-20T09:09:22.292Z,11.99
2022-12-20T09:10:22.495Z,12.00
2022-12-20T09:11:22.650Z,12.04
2022-12-20T09:12:22.836Z,12.09
2022-12-20T09:13:23.011Z,12.10
2022-12-20T09:14:23.171Z,12.15
2022-12-20T09:15:23.318Z,12.17
2022-12-20T09:16:23.553Z,12.21
2022-12-20T09:17:23.690Z,12.27
2022-12-20T09:18:23.865Z,12.29
2022-12-20T09:19:24.006Z,12.36
2022-12-20T09:20:24.199Z,12.42
2022-12-20T09:21:24.364Z,12.47
2022-12-20T09:22:24.517Z,12.54
2022-12-20T09:23:24.692Z,12.58
2022-12-20T09:24:24.867Z,12.67
2022-12-20T09:25:25.056Z,12.72
2022-12-20T09:26:25.237Z,12.79
2022-12-20T09:27:25.405Z,12.90
2022-12-20T09:28:25.552Z,13.01
2022-12-20T09:29:30.858Z,13.11
2022-12-20T09:30:26.898Z,13.18
2022-12-20T09:31:26.191Z,13.18
2022-12-20T09:32:26.274Z,13.27
2022-12-20T09:33:26.404Z,13.31
2022-12-20T09:34:26.596Z,13.33
2022-12-20T09:35:26.798Z,13.35
2022-12-20T09:36:26.983Z,13.38
2022-12-20T09:37:27.146Z,13.39
2022-12-20T09:38:27.326Z,13.41
2022-12-20T09:39:27.542Z,13.46
2022-12-20T09:40:27.689Z,13.50
2022-12-20T09:41:27.846Z,13.52
2022-12-20T09:42:28.065Z,13.50
2022-12-20T09:43:28.195Z,13.52
2022-12-20T09:44:28.384Z,13.52
2022-12-20T09:45:28.554Z,13.53
2022-12-20T09:46:28.771Z,13.53
2022-12-20T09:47:28.907Z,13.49
2022-12-20T09:48:29.036Z,13.46
2022-12-20T09:49:29.200Z,13.47
2022-12-20T09:50:29.395Z,13.49
2022-12-20T09:51:29.548Z,13.47
2022-12-20T09:52:29.769Z,13.44
2022-12-20T09:53:29.932Z,13.44
2022-12-20T09:54:30.067Z,13.46
2022-12-20T09:55:30.283Z,13.44
2022-12-20T09:56:30.416Z,13.41
2022-12-20T09:57:30.631Z,13.39
2022-12-20T09:58:30.766Z,13.37
2022-12-20T09:59:35.487Z,13.30
2022-12-20T10:00:32.155Z,13.27
2022-12-20T10:01:37.979Z,13.25
2022-12-20T10:02:58.424Z,13.25
2022-12-20T10:03:32.916Z,13.23
2022-12-20T10:04:32.006Z,13.27
2022-12-20T10:05:38.708Z,13.28
2022-12-20T10:06:33.184Z,13.25
2022-12-20T10:07:32.369Z,13.20
2022-12-20T10:08:32.531Z,13.23
2022-12-20T10:09:32.667Z,13.23
2022-12-20T10:10:32.887Z,13.25
2022-12-20T10:11:39.520Z,13.28
2022-12-20T10:12:34.196Z,13.30
2022-12-20T10:13:33.509Z,13.30
2022-12-20T10:14:33.524Z,13.30
2022-12-20T10:15:33.784Z,13.28
2022-12-20T10:16:33.958Z,13.31
2022-12-20T10:17:34.061Z,13.35
2022-12-20T10:18:34.246Z,13.37
2022-12-20T10:19:34.428Z,13.37
2022-12-20T10:20:34.625Z,13.38
2022-12-20T10:21:34.759Z,13.42
2022-12-20T10:22:34.925Z,13.52
2022-12-20T10:23:35.154Z,13.59
2022-12-20T10:24:35.300Z,13.63
2022-12-20T10:25:35.537Z,13.71
2022-12-20T10:26:35.701Z,13.83
2022-12-20T10:27:35.787Z,13.89
2022-12-20T10:28:35.984Z,13.96
2022-12-20T10:29:36.118Z,13.99
2022-12-20T10:30:36.295Z,13.99
2022-12-20T10:31:36.555Z,13.97
2022-12-20T10:32:36.699Z,13.99
2022-12-20T10:33:36.858Z,14.00
2022-12-20T10:34:41.030Z,14.04
2022-12-20T10:35:38.162Z,14.05
2022-12-20T10:36:37.314Z,14.08
2022-12-20T10:37:39.208Z,14.08
2022-12-20T10:38:37.705Z,14.10
2022-12-20T10:39:37.861Z,14.10
2022-12-20T10:41:10.089Z,14.18
2022-12-20T10:41:39.198Z,14.20
2022-12-20T10:42:38.369Z,14.20
2022-12-20T10:43:38.543Z,14.23
2022-12-20T10:44:38.732Z,14.28
2022-12-20T10:45:38.876Z,14.29
2022-12-20T10:46:39.129Z,14.28
2022-12-20T10:47:39.217Z,14.25
2022-12-20T10:48:39.391Z,14.25
2022-12-20T10:49:39.541Z,14.25
2022-12-20T10:50:39.690Z,14.26
2022-12-20T10:51:39.839Z,14.26
2022-12-20T10:52:39.983Z,14.29
2022-12-20T10:53:40.186Z,14.29
2022-12-20T10:54:40.350Z,14.32
2022-12-20T10:55:40.537Z,14.30
2022-12-20T10:56:40.715Z,14.30
2022-12-20T10:57:40.861Z,14.28
2022-12-20T10:58:41.065Z,14.26
2022-12-20T10:59:41.210Z,14.29
2022-12-20T11:00:41.413Z,14.26
2022-12-20T11:01:41.660Z,14.29
2022-12-20T11:02:42.981Z,14.28
2022-12-20T11:03:42.577Z,14.25
2022-12-20T11:04:42.108Z,14.25
2022-12-20T11:05:42.266Z,14.25
2022-12-20T11:06:42.451Z,14.22
2022-12-20T11:07:50.415Z,14.22
2022-12-20T11:08:51.506Z,14.20
2022-12-20T11:09:43.963Z,14.22
2022-12-20T11:10:43.157Z,14.23
2022-12-20T11:11:43.302Z,14.25
2022-12-20T11:12:43.516Z,14.23
2022-12-20T11:13:43.684Z,14.26
2022-12-20T11:14:43.870Z,14.26
2022-12-20T11:15:44.085Z,14.25
2022-12-20T11:16:44.352Z,14.20
2022-12-20T11:17:44.399Z,14.20
2022-12-20T11:18:44.605Z,14.22
2022-12-20T11:19:44.794Z,14.20
2022-12-20T11:20:44.963Z,14.17
2022-12-20T11:21:45.136Z,14.14
2022-12-20T11:22:45.270Z,14.12
2022-12-20T11:23:45.473Z,14.12
2022-12-20T11:24:45.612Z,14.12
2022-12-20T11:25:45.829Z,14.18
2022-12-20T11:26:45.997Z,14.26
2022-12-20T11:27:46.154Z,14.33
2022-12-20T11:28:46.343Z,14.40
2022-12-20T11:29:46.498Z,14.51
2022-12-20T11:30:46.650Z,14.58
2022-12-20T11:31:46.834Z,14.62
2022-12-20T11:32:49.146Z,14.65
2022-12-20T11:33:47.196Z,14.66
2022-12-20T11:34:47.332Z,14.66
2022-12-20T11:35:47.512Z,14.68
2022-12-20T11:36:47.671Z,14.69
2022-12-20T11:37:47.805Z,14.68
2022-12-20T11:38:47.999Z,14.66
2022-12-20T11:39:48.226Z,14.55
2022-12-20T11:40:48.369Z,14.50
2022-12-20T11:41:48.512Z,14.48
2022-12-20T11:42:48.703Z,14.45
2022-12-20T11:44:23.390Z,14.43
2022-12-20T11:44:58.877Z,14.36
2022-12-20T11:45:50.244Z,14.36
2022-12-20T11:46:49.473Z,14.35
2022-12-20T11:47:49.598Z,14.36
2022-12-20T11:48:49.789Z,14.40
2022-12-20T11:49:49.940Z,14.33
2022-12-20T11:50:50.073Z,14.32
2022-12-20T11:51:50.285Z,14.29
2022-12-20T11:52:50.415Z,14.28
2022-12-20T11:53:50.619Z,14.25
2022-12-20T11:54:50.765Z,14.25
2022-12-20T11:55:50.961Z,14.22
2022-12-20T11:56:51.119Z,14.25
2022-12-20T11:58:17.061Z,14.25
2022-12-20T11:58:52.467Z,14.23
2022-12-20T11:59:51.638Z,14.22
2022-12-20T12:00:51.784Z,14.20
2022-12-20T12:01:52.064Z,14.20
2022-12-20T12:02:58.145Z,14.23
2022-12-20T12:03:53.310Z,14.20
2022-12-20T12:04:52.488Z,14.20
2022-12-20T12:05:52.632Z,14.23
2022-12-20T12:06:52.821Z,14.20
2022-12-20T12:07:53.013Z,14.17
2022-12-20T12:08:53.209Z,14.10
2022-12-20T12:09:53.354Z,14.05
2022-12-20T12:10:53.550Z,14.05
2022-12-20T12:12:06.742Z,14.04
2022-12-20T12:12:54.885Z,14.00
2022-12-20T12:13:54.103Z,13.99
2022-12-20T12:14:54.274Z,13.93
2022-12-20T12:15:54.467Z,13.92
2022-12-20T12:16:54.717Z,13.93
2022-12-20T12:17:54.781Z,13.93
2022-12-20T12:18:54.994Z,13.90
2022-12-20T12:19:55.150Z,13.92
2022-12-20T12:20:55.345Z,13.95
2022-12-20T12:21:55.513Z,13.95
2022-12-20T12:22:55.685Z,13.95
2022-12-20T12:23:55.841Z,13.89
2022-12-20T12:24:56.006Z,13.89
2022-12-20T12:25:56.202Z,13.89
2022-12-20T12:26:56.364Z,13.92
2022-12-20T12:27:56.522Z,13.97
2022-12-20T12:28:56.726Z,13.99
2022-12-20T12:29:56.912Z,13.97
2022-12-20T12:30:57.068Z,13.97
2022-12-20T12:31:57.276Z,13.97
2022-12-20T12:32:57.394Z,13.97
2022-12-20T12:33:57.587Z,13.99
2022-12-20T12:34:57.721Z,13.96
2022-12-20T12:35:57.892Z,13.93
2022-12-20T12:36:58.081Z,13.95
2022-12-20T12:37:58.274Z,13.95
2022-12-20T12:39:02.122Z,13.95
2022-12-20T12:39:58.617Z,13.95
2022-12-20T12:40:58.802Z,13.97
2022-12-20T12:41:58.982Z,13.97
2022-12-20T12:42:59.197Z,14.00
2022-12-20T12:43:59.333Z,14.00
2022-12-20T12:44:59.515Z,14.04
2022-12-20T12:45:59.757Z,14.03
2022-12-20T12:46:59.838Z,14.03
2022-12-20T12:48:00.070Z,14.03
2022-12-20T12:49:00.235Z,14.04
2022-12-20T12:50:00.370Z,14.08
2022-12-20T12:51:00.572Z,14.07
2022-12-20T12:52:00.766Z,14.07
2022-12-20T12:53:00.932Z,14.07
2022-12-20T12:54:01.130Z,14.08
2022-12-20T12:55:01.264Z,14.10
2022-12-20T12:56:19.447Z,14.10
2022-12-20T12:57:02.614Z,14.14
2022-12-20T12:58:01.828Z,14.15
2022-12-20T12:59:01.972Z,14.14
2022-12-20T13:00:02.140Z,14.14
2022-12-20T13:01:02.350Z,14.14
2022-12-20T13:02:02.693Z,14.12
2022-12-20T13:03:02.766Z,14.08
2022-12-20T13:04:02.828Z,14.07